sensor_id;sensor_type;location;lat;lon;timestamp;temperature;humidity
65291;SHT30;51893;59.754;10.110;2022-11-15T00:01:59;5.34;88.23
65291;SHT30;51893;59.754;10.110;2022-11-15T00:04:28;5.34;88.28
65291;SHT30;51893;59.754;10.110;2022-11-15T00:07:00;5.33;88.29
65291;SHT30;51893;59.754;10.110;2022-11-15T00:09:29;5.29;88.25
65291;SHT30;51893;59.754;10.110;2022-11-15T00:11:57;5.28;88.25
65291;SHT30;51893;59.754;10.110;2022-11-15T00:14:26;5.28;88.27
65291;SHT30;51893;59.754;10.110;2022-11-15T00:16:54;5.30;88.20
65291;SHT30;51893;59.754;10.110;2022-11-15T00:19:22;5.34;88.15
65291;SHT30;51893;59.754;10.110;2022-11-15T00:21:50;5.31;88.10
65291;SHT30;51893;59.754;10.110;2022-11-15T00:24:18;5.29;88.06
65291;SHT30;51893;59.754;10.110;2022-11-15T00:26:46;5.28;88.02
65291;SHT30;51893;59.754;10.110;2022-11-15T00:29:14;5.27;88.02
65291;SHT30;51893;59.754;10.110;2022-11-15T00:31:45;5.28;88.05
65291;SHT30;51893;59.754;10.110;2022-11-15T00:34:13;5.31;88.10
65291;SHT30;51893;59.754;10.110;2022-11-15T00:36:52;5.31;88.02
65291;SHT30;51893;59.754;10.110;2022-11-15T00:39:22;5.30;88.00
65291;SHT30;51893;59.754;10.110;2022-11-15T00:41:51;5.29;87.98
65291;SHT30;51893;59.754;10.110;2022-11-15T00:44:19;5.29;87.97
65291;SHT30;51893;59.754;10.110;2022-11-15T00:46:49;5.29;87.97
65291;SHT30;51893;59.754;10.110;2022-11-15T00:49:17;5.31;87.98
65291;SHT30;51893;59.754;10.110;2022-11-15T00:51:46;5.35;88.00
65291;SHT30;51893;59.754;10.110;2022-11-15T00:54:16;5.34;87.94
65291;SHT30;51893;59.754;10.110;2022-11-15T00:56:49;5.34;87.93
65291;SHT30;51893;59.754;10.110;2022-11-15T00:59:17;5.38;87.88
65291;SHT30;51893;59.754;10.110;2022-11-15T01:01:47;5.35;87.87
65291;SHT30;51893;59.754;10.110;2022-11-15T01:04:15;5.38;87.87
65291;SHT30;51893;59.754;10.110;2022-11-15T01:06:47;5.39;87.78
65291;SHT30;51893;59.754;10.110;2022-11-15T01:09:15;5.38;87.72
65291;SHT30;51893;59.754;10.110;2022-11-15T01:11:45;5.32;87.70
65291;SHT30;51893;59.754;10.110;2022-11-15T01:14:15;5.28;87.71
65291;SHT30;51893;59.754;10.110;2022-11-15T01:16:49;5.22;87.79
65291;SHT30;51893;59.754;10.110;2022-11-15T01:19:18;5.21;87.84
65291;SHT30;51893;59.754;10.110;2022-11-15T01:21:50;5.22;87.90
65291;SHT30;51893;59.754;10.110;2022-11-15T01:24:19;5.23;87.95
65291;SHT30;51893;59.754;10.110;2022-11-15T01:26:48;5.21;87.91
65291;SHT30;51893;59.754;10.110;2022-11-15T01:29:16;5.15;87.93
65291;SHT30;51893;59.754;10.110;2022-11-15T01:31:44;5.15;88.04
65291;SHT30;51893;59.754;10.110;2022-11-15T01:34:12;5.15;88.00
65291;SHT30;51893;59.754;10.110;2022-11-15T01:36:41;5.11;88.05
65291;SHT30;51893;59.754;10.110;2022-11-15T01:39:11;5.08;88.05
65291;SHT30;51893;59.754;10.110;2022-11-15T01:41:39;5.09;88.10
65291;SHT30;51893;59.754;10.110;2022-11-15T01:47:57;5.10;88.10
65291;SHT30;51893;59.754;10.110;2022-11-15T01:50:26;5.10;87.99
65291;SHT30;51893;59.754;10.110;2022-11-15T01:53:01;5.10;87.92
65291;SHT30;51893;59.754;10.110;2022-11-15T01:55:29;5.11;87.86
65291;SHT30;51893;59.754;10.110;2022-11-15T01:57:59;5.09;87.79
65291;SHT30;51893;59.754;10.110;2022-11-15T02:00:32;5.09;87.72
65291;SHT30;51893;59.754;10.110;2022-11-15T02:03:01;5.05;87.60
65291;SHT30;51893;59.754;10.110;2022-11-15T02:05:31;4.98;87.65
65291;SHT30;51893;59.754;10.110;2022-11-15T02:08:00;4.94;87.65
65291;SHT30;51893;59.754;10.110;2022-11-15T02:10:29;4.97;87.70
65291;SHT30;51893;59.754;10.110;2022-11-15T02:12:59;5.01;87.61
65291;SHT30;51893;59.754;10.110;2022-11-15T02:15:30;5.03;87.56
65291;SHT30;51893;59.754;10.110;2022-11-15T02:18:39;5.08;87.50
65291;SHT30;51893;59.754;10.110;2022-11-15T02:24:06;5.07;87.35
65291;SHT30;51893;59.754;10.110;2022-11-15T02:38:52;5.14;87.00
65291;SHT30;51893;59.754;10.110;2022-11-15T02:41:36;5.19;86.97
65291;SHT30;51893;59.754;10.110;2022-11-15T02:44:39;5.26;86.83
65291;SHT30;51893;59.754;10.110;2022-11-15T02:47:14;5.22;86.61
65291;SHT30;51893;59.754;10.110;2022-11-15T02:49:46;5.23;86.67
65291;SHT30;51893;59.754;10.110;2022-11-15T02:52:24;5.28;86.69
65291;SHT30;51893;59.754;10.110;2022-11-15T02:54:55;5.28;86.65
65291;SHT30;51893;59.754;10.110;2022-11-15T03:00:20;5.30;86.70
65291;SHT30;51893;59.754;10.110;2022-11-15T03:05:56;5.26;86.70
65291;SHT30;51893;59.754;10.110;2022-11-15T03:11:23;5.37;86.67
65291;SHT30;51893;59.754;10.110;2022-11-15T03:17:07;5.39;86.38
65291;SHT30;51893;59.754;10.110;2022-11-15T03:19:50;5.41;86.43
65291;SHT30;51893;59.754;10.110;2022-11-15T03:22:24;5.36;86.26
65291;SHT30;51893;59.754;10.110;2022-11-15T03:25:15;5.15;86.26
65291;SHT30;51893;59.754;10.110;2022-11-15T03:27:49;5.03;86.61
65291;SHT30;51893;59.754;10.110;2022-11-15T03:30:23;5.00;86.85
65291;SHT30;51893;59.754;10.110;2022-11-15T03:32:53;5.02;86.93
65291;SHT30;51893;59.754;10.110;2022-11-15T03:35:27;5.06;87.00
65291;SHT30;51893;59.754;10.110;2022-11-15T03:40:58;5.00;87.06
65291;SHT30;51893;59.754;10.110;2022-11-15T03:46:16;4.92;87.33
65291;SHT30;51893;59.754;10.110;2022-11-15T03:48:52;4.95;87.38
65291;SHT30;51893;59.754;10.110;2022-11-15T03:51:34;4.96;87.28
65291;SHT30;51893;59.754;10.110;2022-11-15T03:54:03;4.91;87.32
65291;SHT30;51893;59.754;10.110;2022-11-15T03:56:33;4.87;87.30
65291;SHT30;51893;59.754;10.110;2022-11-15T03:59:01;4.85;87.37
65291;SHT30;51893;59.754;10.110;2022-11-15T04:01:29;4.87;87.41
65291;SHT30;51893;59.754;10.110;2022-11-15T04:03:59;4.90;87.28
65291;SHT30;51893;59.754;10.110;2022-11-15T04:06:27;4.86;87.22
65291;SHT30;51893;59.754;10.110;2022-11-15T04:08:56;4.83;87.31
65291;SHT30;51893;59.754;10.110;2022-11-15T04:11:24;4.77;87.43
65291;SHT30;51893;59.754;10.110;2022-11-15T04:13:52;4.79;87.56
65291;SHT30;51893;59.754;10.110;2022-11-15T04:16:21;4.84;87.58
65291;SHT30;51893;59.754;10.110;2022-11-15T04:18:49;4.88;87.43
65291;SHT30;51893;59.754;10.110;2022-11-15T04:21:38;4.88;87.29
65291;SHT30;51893;59.754;10.110;2022-11-15T04:24:25;4.86;87.17
65291;SHT30;51893;59.754;10.110;2022-11-15T04:26:54;4.80;87.13
65291;SHT30;51893;59.754;10.110;2022-11-15T04:29:22;4.78;87.10
65291;SHT30;51893;59.754;10.110;2022-11-15T04:32:04;4.75;87.03
65291;SHT30;51893;59.754;10.110;2022-11-15T04:34:34;4.70;87.01
65291;SHT30;51893;59.754;10.110;2022-11-15T04:37:02;4.65;87.04
65291;SHT30;51893;59.754;10.110;2022-11-15T04:39:42;4.64;87.14
65291;SHT30;51893;59.754;10.110;2022-11-15T04:42:12;4.68;87.12
65291;SHT30;51893;59.754;10.110;2022-11-15T04:44:42;4.69;86.98
65291;SHT30;51893;59.754;10.110;2022-11-15T04:47:10;4.70;86.85
65291;SHT30;51893;59.754;10.110;2022-11-15T04:49:42;4.70;86.79
65291;SHT30;51893;59.754;10.110;2022-11-15T04:52:11;4.71;86.72
65291;SHT30;51893;59.754;10.110;2022-11-15T04:54:45;4.78;86.76
65291;SHT30;51893;59.754;10.110;2022-11-15T04:57:15;4.79;86.64
65291;SHT30;51893;59.754;10.110;2022-11-15T04:59:46;4.81;86.66
65291;SHT30;51893;59.754;10.110;2022-11-15T05:02:15;4.86;86.63
65291;SHT30;51893;59.754;10.110;2022-11-15T05:04:46;4.91;86.56
65291;SHT30;51893;59.754;10.110;2022-11-15T05:07:14;4.95;86.50
65291;SHT30;51893;59.754;10.110;2022-11-15T05:09:44;4.99;86.46
65291;SHT30;51893;59.754;10.110;2022-11-15T05:12:13;4.96;86.40
65291;SHT30;51893;59.754;10.110;2022-11-15T05:14:41;4.93;86.41
65291;SHT30;51893;59.754;10.110;2022-11-15T05:17:11;4.91;86.43
65291;SHT30;51893;59.754;10.110;2022-11-15T05:19:39;4.86;86.41
65291;SHT30;51893;59.754;10.110;2022-11-15T05:22:09;4.86;86.45
65291;SHT30;51893;59.754;10.110;2022-11-15T05:24:37;4.84;86.43
65291;SHT30;51893;59.754;10.110;2022-11-15T05:27:05;4.79;86.44
65291;SHT30;51893;59.754;10.110;2022-11-15T05:29:33;4.82;86.58
65291;SHT30;51893;59.754;10.110;2022-11-15T05:32:04;4.80;86.48
65291;SHT30;51893;59.754;10.110;2022-11-15T05:34:33;4.81;86.51
65291;SHT30;51893;59.754;10.110;2022-11-15T05:37:03;4.81;86.45
65291;SHT30;51893;59.754;10.110;2022-11-15T05:39:31;4.81;86.50
65291;SHT30;51893;59.754;10.110;2022-11-15T05:42:13;4.85;86.49
65291;SHT30;51893;59.754;10.110;2022-11-15T05:44:46;4.82;86.41
65291;SHT30;51893;59.754;10.110;2022-11-15T05:47:22;4.82;86.48
65291;SHT30;51893;59.754;10.110;2022-11-15T05:49:55;4.81;86.47
65291;SHT30;51893;59.754;10.110;2022-11-15T05:52:27;4.83;86.43
65291;SHT30;51893;59.754;10.110;2022-11-15T05:55:01;4.85;86.38
65291;SHT30;51893;59.754;10.110;2022-11-15T05:57:36;4.83;86.40
65291;SHT30;51893;59.754;10.110;2022-11-15T06:00:04;4.79;86.34
65291;SHT30;51893;59.754;10.110;2022-11-15T06:02:36;4.71;86.43
65291;SHT30;51893;59.754;10.110;2022-11-15T06:05:09;4.70;86.55
65291;SHT30;51893;59.754;10.110;2022-11-15T06:07:37;4.74;86.58
65291;SHT30;51893;59.754;10.110;2022-11-15T06:10:07;4.79;86.54
65291;SHT30;51893;59.754;10.110;2022-11-15T06:12:36;4.77;86.46
65291;SHT30;51893;59.754;10.110;2022-11-15T06:15:04;4.83;86.54
65291;SHT30;51893;59.754;10.110;2022-11-15T06:17:37;4.86;86.51
65291;SHT30;51893;59.754;10.110;2022-11-15T06:20:07;4.90;86.50
65291;SHT30;51893;59.754;10.110;2022-11-15T06:22:39;4.91;86.34
65291;SHT30;51893;59.754;10.110;2022-11-15T06:25:21;4.90;86.37
65291;SHT30;51893;59.754;10.110;2022-11-15T06:27:57;4.90;86.42
65291;SHT30;51893;59.754;10.110;2022-11-15T06:30:26;4.91;86.38
65291;SHT30;51893;59.754;10.110;2022-11-15T06:33:01;4.88;86.32
65291;SHT30;51893;59.754;10.110;2022-11-15T06:35:37;4.83;86.41
65291;SHT30;51893;59.754;10.110;2022-11-15T06:38:09;4.85;86.50
65291;SHT30;51893;59.754;10.110;2022-11-15T06:40:39;4.92;86.51
65291;SHT30;51893;59.754;10.110;2022-11-15T06:43:07;4.87;86.43
65291;SHT30;51893;59.754;10.110;2022-11-15T06:45:37;4.85;86.55
65291;SHT30;51893;59.754;10.110;2022-11-15T06:48:08;4.86;86.60
65291;SHT30;51893;59.754;10.110;2022-11-15T06:50:36;4.87;86.58
65291;SHT30;51893;59.754;10.110;2022-11-15T06:53:07;4.87;86.60
65291;SHT30;51893;59.754;10.110;2022-11-15T06:55:36;4.87;86.57
65291;SHT30;51893;59.754;10.110;2022-11-15T06:58:08;4.86;86.50
65291;SHT30;51893;59.754;10.110;2022-11-15T07:00:41;4.89;86.59
65291;SHT30;51893;59.754;10.110;2022-11-15T07:03:12;4.91;86.52
65291;SHT30;51893;59.754;10.110;2022-11-15T07:05:42;4.85;86.44
65291;SHT30;51893;59.754;10.110;2022-11-15T07:08:18;4.79;86.49
65291;SHT30;51893;59.754;10.110;2022-11-15T07:10:48;4.76;86.60
65291;SHT30;51893;59.754;10.110;2022-11-15T07:13:20;4.78;86.69
65291;SHT30;51893;59.754;10.110;2022-11-15T07:15:53;4.79;86.61
65291;SHT30;51893;59.754;10.110;2022-11-15T07:18:21;4.83;86.65
65291;SHT30;51893;59.754;10.110;2022-11-15T07:20:53;4.88;86.59
65291;SHT30;51893;59.754;10.110;2022-11-15T07:23:21;4.88;86.55
65291;SHT30;51893;59.754;10.110;2022-11-15T07:25:51;4.89;86.51
65291;SHT30;51893;59.754;10.110;2022-11-15T07:28:20;4.94;86.51
65291;SHT30;51893;59.754;10.110;2022-11-15T07:30:49;4.99;86.42
65291;SHT30;51893;59.754;10.110;2022-11-15T07:33:17;5.05;86.33
65291;SHT30;51893;59.754;10.110;2022-11-15T07:35:46;5.13;86.32
65291;SHT30;51893;59.754;10.110;2022-11-15T07:38:17;5.22;86.25
65291;SHT30;51893;59.754;10.110;2022-11-15T07:40:55;5.26;86.14
65291;SHT30;51893;59.754;10.110;2022-11-15T07:43:28;5.26;86.06
65291;SHT30;51893;59.754;10.110;2022-11-15T07:46:03;5.17;86.10
65291;SHT30;51893;59.754;10.110;2022-11-15T07:48:37;5.15;86.20
65291;SHT30;51893;59.754;10.110;2022-11-15T07:51:12;5.17;86.28
65291;SHT30;51893;59.754;10.110;2022-11-15T07:53:42;5.24;86.21
65291;SHT30;51893;59.754;10.110;2022-11-15T07:56:15;5.34;86.07
65291;SHT30;51893;59.754;10.110;2022-11-15T07:58:53;5.35;85.95
65291;SHT30;51893;59.754;10.110;2022-11-15T08:01:28;5.41;85.94
65291;SHT30;51893;59.754;10.110;2022-11-15T08:03:56;5.45;85.84
65291;SHT30;51893;59.754;10.110;2022-11-15T08:06:24;5.45;85.79
65291;SHT30;51893;59.754;10.110;2022-11-15T08:08:52;5.43;85.81
65291;SHT30;51893;59.754;10.110;2022-11-15T08:11:21;5.40;85.87
65291;SHT30;51893;59.754;10.110;2022-11-15T08:13:51;5.42;85.89
65291;SHT30;51893;59.754;10.110;2022-11-15T08:16:19;5.41;85.86
65291;SHT30;51893;59.754;10.110;2022-11-15T08:18:48;5.47;85.66
65291;SHT30;51893;59.754;10.110;2022-11-15T08:21:20;5.55;85.50
65291;SHT30;51893;59.754;10.110;2022-11-15T08:23:53;5.60;85.39
65291;SHT30;51893;59.754;10.110;2022-11-15T08:26:28;5.64;85.18
65291;SHT30;51893;59.754;10.110;2022-11-15T08:28:58;5.70;84.97
65291;SHT30;51893;59.754;10.110;2022-11-15T08:31:26;5.75;84.79
65291;SHT30;51893;59.754;10.110;2022-11-15T08:33:55;5.79;84.59
65291;SHT30;51893;59.754;10.110;2022-11-15T08:36:23;5.84;84.48
65291;SHT30;51893;59.754;10.110;2022-11-15T08:38:51;5.86;84.41
65291;SHT30;51893;59.754;10.110;2022-11-15T08:41:33;5.89;84.31
65291;SHT30;51893;59.754;10.110;2022-11-15T08:44:05;5.90;84.28
65291;SHT30;51893;59.754;10.110;2022-11-15T08:46:33;5.92;84.16
65291;SHT30;51893;59.754;10.110;2022-11-15T08:49:01;5.96;84.08
65291;SHT30;51893;59.754;10.110;2022-11-15T08:51:29;5.98;84.01
65291;SHT30;51893;59.754;10.110;2022-11-15T08:53:57;6.00;84.00
65291;SHT30;51893;59.754;10.110;2022-11-15T08:56:27;6.01;83.95
65291;SHT30;51893;59.754;10.110;2022-11-15T08:58:55;6.06;83.85
65291;SHT30;51893;59.754;10.110;2022-11-15T09:01:23;6.11;83.77
65291;SHT30;51893;59.754;10.110;2022-11-15T09:03:52;6.13;83.60
65291;SHT30;51893;59.754;10.110;2022-11-15T09:06:25;6.14;83.52
65291;SHT30;51893;59.754;10.110;2022-11-15T09:08:53;6.14;83.50
65291;SHT30;51893;59.754;10.110;2022-11-15T09:11:21;6.14;83.58
65291;SHT30;51893;59.754;10.110;2022-11-15T09:13:51;6.16;83.65
65291;SHT30;51893;59.754;10.110;2022-11-15T09:16:23;6.17;83.76
65291;SHT30;51893;59.754;10.110;2022-11-15T09:18:52;6.17;83.84
65291;SHT30;51893;59.754;10.110;2022-11-15T09:21:22;6.15;84.00
65291;SHT30;51893;59.754;10.110;2022-11-15T09:23:51;6.13;84.08
65291;SHT30;51893;59.754;10.110;2022-11-15T09:26:19;6.11;84.21
65291;SHT30;51893;59.754;10.110;2022-11-15T09:28:48;6.12;84.30
65291;SHT30;51893;59.754;10.110;2022-11-15T09:31:16;6.12;84.42
65291;SHT30;51893;59.754;10.110;2022-11-15T09:33:54;6.11;84.50
65291;SHT30;51893;59.754;10.110;2022-11-15T09:36:31;6.10;84.57
65291;SHT30;51893;59.754;10.110;2022-11-15T09:38:59;6.10;84.72
65291;SHT30;51893;59.754;10.110;2022-11-15T09:41:48;6.11;84.79
65291;SHT30;51893;59.754;10.110;2022-11-15T09:50:58;6.14;85.09
65291;SHT30;51893;59.754;10.110;2022-11-15T09:53:37;6.15;85.16
65291;SHT30;51893;59.754;10.110;2022-11-15T09:56:46;6.17;85.28
65291;SHT30;51893;59.754;10.110;2022-11-15T09:59:26;6.18;85.34
65291;SHT30;51893;59.754;10.110;2022-11-15T10:05:16;6.20;85.57
65291;SHT30;51893;59.754;10.110;2022-11-15T10:10:47;6.18;85.87
65291;SHT30;51893;59.754;10.110;2022-11-15T10:13:49;6.18;85.97
65291;SHT30;51893;59.754;10.110;2022-11-15T10:16:44;6.18;86.09
65291;SHT30;51893;59.754;10.110;2022-11-15T10:22:51;6.18;86.34
65291;SHT30;51893;59.754;10.110;2022-11-15T10:25:44;6.18;86.51
65291;SHT30;51893;59.754;10.110;2022-11-15T10:28:22;6.21;86.60
65291;SHT30;51893;59.754;10.110;2022-11-15T10:30:59;6.23;86.61
65291;SHT30;51893;59.754;10.110;2022-11-15T10:33:30;6.24;86.67
65291;SHT30;51893;59.754;10.110;2022-11-15T10:39:00;6.24;86.78
65291;SHT30;51893;59.754;10.110;2022-11-15T10:44:57;6.29;86.86
65291;SHT30;51893;59.754;10.110;2022-11-15T10:47:31;6.32;86.89
65291;SHT30;51893;59.754;10.110;2022-11-15T10:50:07;6.33;86.85
65291;SHT30;51893;59.754;10.110;2022-11-15T10:52:56;6.32;86.81
65291;SHT30;51893;59.754;10.110;2022-11-15T10:55:28;6.31;86.81
65291;SHT30;51893;59.754;10.110;2022-11-15T10:58:05;6.30;86.73
65291;SHT30;51893;59.754;10.110;2022-11-15T11:01:13;6.33;86.76
65291;SHT30;51893;59.754;10.110;2022-11-15T11:04:07;6.35;86.72
65291;SHT30;51893;59.754;10.110;2022-11-15T11:06:57;6.32;86.59
65291;SHT30;51893;59.754;10.110;2022-11-15T11:09:36;6.32;86.51
65291;SHT30;51893;59.754;10.110;2022-11-15T11:12:12;6.32;86.62
65291;SHT30;51893;59.754;10.110;2022-11-15T11:14:41;6.32;86.76
65291;SHT30;51893;59.754;10.110;2022-11-15T11:32:23;6.29;87.11
65291;SHT30;51893;59.754;10.110;2022-11-15T11:46:55;6.23;87.30
65291;SHT30;51893;59.754;10.110;2022-11-15T11:55:14;6.28;87.49
65291;SHT30;51893;59.754;10.110;2022-11-15T11:58:21;6.28;87.49
65291;SHT30;51893;59.754;10.110;2022-11-15T12:01:46;6.24;87.49
65291;SHT30;51893;59.754;10.110;2022-11-15T12:07:19;6.24;87.68
65291;SHT30;51893;59.754;10.110;2022-11-15T12:09:55;6.23;87.62
65291;SHT30;51893;59.754;10.110;2022-11-15T12:15:24;6.23;87.60
65291;SHT30;51893;59.754;10.110;2022-11-15T12:18:02;6.24;87.66
65291;SHT30;51893;59.754;10.110;2022-11-15T12:20:34;6.24;87.70
65291;SHT30;51893;59.754;10.110;2022-11-15T12:23:18;6.24;87.82
65291;SHT30;51893;59.754;10.110;2022-11-15T12:29:05;6.22;87.87
65291;SHT30;51893;59.754;10.110;2022-11-15T12:32:01;6.22;87.95
65291;SHT30;51893;59.754;10.110;2022-11-15T12:34:41;6.21;87.93
65291;SHT30;51893;59.754;10.110;2022-11-15T12:40:23;6.18;88.07
65291;SHT30;51893;59.754;10.110;2022-11-15T12:45:44;6.18;87.42
65291;SHT30;51893;59.754;10.110;2022-11-15T12:59:05;6.24;86.80
65291;SHT30;51893;59.754;10.110;2022-11-15T13:14:56;6.31;83.99
65291;SHT30;51893;59.754;10.110;2022-11-15T13:17:36;6.32;83.31
65291;SHT30;51893;59.754;10.110;2022-11-15T13:20:22;6.32;83.75
65291;SHT30;51893;59.754;10.110;2022-11-15T13:23:12;6.31;83.75
65291;SHT30;51893;59.754;10.110;2022-11-15T13:28:42;6.33;83.18
65291;SHT30;51893;59.754;10.110;2022-11-15T13:31:28;6.33;82.86
65291;SHT30;51893;59.754;10.110;2022-11-15T13:34:37;6.32;83.00
65291;SHT30;51893;59.754;10.110;2022-11-15T13:39:48;6.31;82.52
65291;SHT30;51893;59.754;10.110;2022-11-15T13:42:19;6.29;82.24
65291;SHT30;51893;59.754;10.110;2022-11-15T13:45:01;6.31;82.28
65291;SHT30;51893;59.754;10.110;2022-11-15T13:47:34;6.31;82.10
65291;SHT30;51893;59.754;10.110;2022-11-15T13:50:02;6.31;81.73
65291;SHT30;51893;59.754;10.110;2022-11-15T13:52:40;6.30;81.53
65291;SHT30;51893;59.754;10.110;2022-11-15T13:55:15;6.29;81.74
65291;SHT30;51893;59.754;10.110;2022-11-15T13:57:53;6.29;81.45
65291;SHT30;51893;59.754;10.110;2022-11-15T14:03:17;6.31;81.34
65291;SHT30;51893;59.754;10.110;2022-11-15T14:06:06;6.30;81.36
65291;SHT30;51893;59.754;10.110;2022-11-15T14:11:37;6.30;81.05
65291;SHT30;51893;59.754;10.110;2022-11-15T14:14:19;6.32;81.09
65291;SHT30;51893;59.754;10.110;2022-11-15T14:16:53;6.33;81.00
65291;SHT30;51893;59.754;10.110;2022-11-15T14:19:35;6.30;80.62
65291;SHT30;51893;59.754;10.110;2022-11-15T14:22:16;6.30;80.81
65291;SHT30;51893;59.754;10.110;2022-11-15T14:30:53;6.31;80.59
65291;SHT30;51893;59.754;10.110;2022-11-15T14:36:05;6.27;80.44
65291;SHT30;51893;59.754;10.110;2022-11-15T14:38:49;6.26;80.54
65291;SHT30;51893;59.754;10.110;2022-11-15T14:41:19;6.25;80.49
65291;SHT30;51893;59.754;10.110;2022-11-15T14:43:52;6.25;80.43
65291;SHT30;51893;59.754;10.110;2022-11-15T14:46:22;6.24;80.50
65291;SHT30;51893;59.754;10.110;2022-11-15T14:48:53;6.24;80.61
65291;SHT30;51893;59.754;10.110;2022-11-15T14:51:21;6.24;80.43
65291;SHT30;51893;59.754;10.110;2022-11-15T14:53:52;6.25;80.05
65291;SHT30;51893;59.754;10.110;2022-11-15T14:56:21;6.24;79.78
65291;SHT30;51893;59.754;10.110;2022-11-15T14:58:49;6.21;79.89
65291;SHT30;51893;59.754;10.110;2022-11-15T15:01:23;6.18;79.67
65291;SHT30;51893;59.754;10.110;2022-11-15T15:03:54;6.16;79.76
65291;SHT30;51893;59.754;10.110;2022-11-15T15:06:24;6.19;79.77
65291;SHT30;51893;59.754;10.110;2022-11-15T15:08:58;6.20;79.73
65291;SHT30;51893;59.754;10.110;2022-11-15T15:11:28;6.22;79.96
65291;SHT30;51893;59.754;10.110;2022-11-15T15:14:00;6.22;79.78
65291;SHT30;51893;59.754;10.110;2022-11-15T15:16:31;6.22;79.73
65291;SHT30;51893;59.754;10.110;2022-11-15T15:18:59;6.24;79.71
65291;SHT30;51893;59.754;10.110;2022-11-15T15:21:30;6.26;79.74
65291;SHT30;51893;59.754;10.110;2022-11-15T15:24:05;6.25;79.66
65291;SHT30;51893;59.754;10.110;2022-11-15T15:26:33;6.26;79.65
65291;SHT30;51893;59.754;10.110;2022-11-15T15:29:04;6.27;79.84
65291;SHT30;51893;59.754;10.110;2022-11-15T15:31:32;6.27;79.64
65291;SHT30;51893;59.754;10.110;2022-11-15T15:34:04;6.28;79.54
65291;SHT30;51893;59.754;10.110;2022-11-15T15:36:37;6.26;79.35
65291;SHT30;51893;59.754;10.110;2022-11-15T15:39:05;6.25;79.26
65291;SHT30;51893;59.754;10.110;2022-11-15T15:41:38;6.24;79.26
65291;SHT30;51893;59.754;10.110;2022-11-15T15:44:09;6.26;79.33
65291;SHT30;51893;59.754;10.110;2022-11-15T15:46:37;6.27;79.40
65291;SHT30;51893;59.754;10.110;2022-11-15T15:49:07;6.25;79.31
65291;SHT30;51893;59.754;10.110;2022-11-15T15:51:37;6.23;79.12
65291;SHT30;51893;59.754;10.110;2022-11-15T15:54:08;6.19;78.85
65291;SHT30;51893;59.754;10.110;2022-11-15T15:56:38;6.18;78.93
65291;SHT30;51893;59.754;10.110;2022-11-15T15:59:07;6.20;78.48
65291;SHT30;51893;59.754;10.110;2022-11-15T16:01:35;6.19;78.38
65291;SHT30;51893;59.754;10.110;2022-11-15T16:04:03;6.19;78.61
65291;SHT30;51893;59.754;10.110;2022-11-15T16:06:36;6.16;78.35
65291;SHT30;51893;59.754;10.110;2022-11-15T16:09:14;6.12;77.69
65291;SHT30;51893;59.754;10.110;2022-11-15T16:11:48;6.11;77.41
65291;SHT30;51893;59.754;10.110;2022-11-15T16:14:16;6.09;77.40
65291;SHT30;51893;59.754;10.110;2022-11-15T16:16:49;6.06;77.36
65291;SHT30;51893;59.754;10.110;2022-11-15T16:19:19;6.04;77.18
65291;SHT30;51893;59.754;10.110;2022-11-15T16:21:47;6.02;77.03
65291;SHT30;51893;59.754;10.110;2022-11-15T16:24:18;6.02;77.16
65291;SHT30;51893;59.754;10.110;2022-11-15T16:26:48;6.02;77.10
65291;SHT30;51893;59.754;10.110;2022-11-15T16:29:18;6.00;76.87
65291;SHT30;51893;59.754;10.110;2022-11-15T16:31:51;5.97;76.89
65291;SHT30;51893;59.754;10.110;2022-11-15T16:34:24;5.97;76.80
65291;SHT30;51893;59.754;10.110;2022-11-15T16:36:58;5.98;76.84
65291;SHT30;51893;59.754;10.110;2022-11-15T16:39:28;5.98;76.46
65291;SHT30;51893;59.754;10.110;2022-11-15T16:42:02;5.96;75.93
65291;SHT30;51893;59.754;10.110;2022-11-15T16:44:32;5.95;75.87
65291;SHT30;51893;59.754;10.110;2022-11-15T16:47:02;5.92;74.78
65291;SHT30;51893;59.754;10.110;2022-11-15T16:49:31;5.91;75.19
65291;SHT30;51893;59.754;10.110;2022-11-15T16:52:01;5.89;75.10
65291;SHT30;51893;59.754;10.110;2022-11-15T16:54:31;5.88;74.92
65291;SHT30;51893;59.754;10.110;2022-11-15T16:57:02;5.87;74.92
65291;SHT30;51893;59.754;10.110;2022-11-15T16:59:31;5.87;74.82
65291;SHT30;51893;59.754;10.110;2022-11-15T17:02:08;5.86;74.80
65291;SHT30;51893;59.754;10.110;2022-11-15T17:04:39;5.82;74.56
65291;SHT30;51893;59.754;10.110;2022-11-15T17:07:07;5.83;74.76
65291;SHT30;51893;59.754;10.110;2022-11-15T17:09:37;5.85;74.95
65291;SHT30;51893;59.754;10.110;2022-11-15T17:12:07;5.89;75.29
65291;SHT30;51893;59.754;10.110;2022-11-15T17:14:38;5.88;75.04
65291;SHT30;51893;59.754;10.110;2022-11-15T17:17:08;5.87;75.09
65291;SHT30;51893;59.754;10.110;2022-11-15T17:19:38;5.89;75.30
65291;SHT30;51893;59.754;10.110;2022-11-15T17:22:07;5.89;75.40
65291;SHT30;51893;59.754;10.110;2022-11-15T17:24:36;5.86;75.26
65291;SHT30;51893;59.754;10.110;2022-11-15T17:27:05;5.83;74.98
65291;SHT30;51893;59.754;10.110;2022-11-15T17:29:35;5.85;75.00
65291;SHT30;51893;59.754;10.110;2022-11-15T17:32:08;5.84;75.11
65291;SHT30;51893;59.754;10.110;2022-11-15T17:34:45;5.83;75.11
65291;SHT30;51893;59.754;10.110;2022-11-15T17:37:15;5.82;74.75
65291;SHT30;51893;59.754;10.110;2022-11-15T17:39:46;5.81;74.67
65291;SHT30;51893;59.754;10.110;2022-11-15T17:42:16;5.80;74.69
65291;SHT30;51893;59.754;10.110;2022-11-15T17:44:44;5.80;74.49
65291;SHT30;51893;59.754;10.110;2022-11-15T17:47:19;5.80;74.34
65291;SHT30;51893;59.754;10.110;2022-11-15T17:49:47;5.77;74.37
65291;SHT30;51893;59.754;10.110;2022-11-15T17:52:15;5.76;74.66
65291;SHT30;51893;59.754;10.110;2022-11-15T17:54:49;5.75;74.34
65291;SHT30;51893;59.754;10.110;2022-11-15T17:57:18;5.76;74.44
65291;SHT30;51893;59.754;10.110;2022-11-15T17:59:46;5.78;74.42
65291;SHT30;51893;59.754;10.110;2022-11-15T18:02:18;5.81;74.61
65291;SHT30;51893;59.754;10.110;2022-11-15T18:04:48;5.82;74.57
65291;SHT30;51893;59.754;10.110;2022-11-15T18:07:16;5.78;74.48
65291;SHT30;51893;59.754;10.110;2022-11-15T18:09:44;5.75;74.39
65291;SHT30;51893;59.754;10.110;2022-11-15T18:12:16;5.74;74.37
65291;SHT30;51893;59.754;10.110;2022-11-15T18:14:45;5.73;73.97
65291;SHT30;51893;59.754;10.110;2022-11-15T18:17:14;5.72;73.99
65291;SHT30;51893;59.754;10.110;2022-11-15T18:19:45;5.69;73.85
65291;SHT30;51893;59.754;10.110;2022-11-15T18:22:17;5.69;73.96
65291;SHT30;51893;59.754;10.110;2022-11-15T18:24:50;5.68;74.09
65291;SHT30;51893;59.754;10.110;2022-11-15T18:27:20;5.67;74.09
65291;SHT30;51893;59.754;10.110;2022-11-15T18:29:50;5.69;73.85
65291;SHT30;51893;59.754;10.110;2022-11-15T18:32:20;5.68;73.93
65291;SHT30;51893;59.754;10.110;2022-11-15T18:34:50;5.66;74.04
65291;SHT30;51893;59.754;10.110;2022-11-15T18:37:23;5.65;74.02